createdAt,value
2018-03-04T00:00:09.346Z,51.10
2018-03-04T00:01:09.323Z,49.00
2018-03-04T00:02:09.300Z,48.40
2018-03-04T00:03:09.273Z,50.40
2018-03-04T00:04:09.249Z,49.60
2018-03-04T00:05:09.221Z,52.80
2018-03-04T00:06:09.198Z,52.20
2018-03-04T00:07:09.178Z,53.20
2018-03-04T00:08:09.150Z,52.70
2018-03-04T00:09:09.123Z,48.60
2018-03-04T00:10:09.104Z,57.60
2018-03-04T00:11:09.074Z,49.60
2018-03-04T00:12:09.053Z,54.70
2018-03-04T00:13:09.034Z,52.20
2018-03-04T00:14:09.002Z,54.90
2018-03-04T00:15:08.977Z,52.00
2018-03-04T00:16:08.953Z,51.20
2018-03-04T00:17:08.931Z,51.80
2018-03-04T00:18:08.902Z,51.60
2018-03-04T00:19:08.884Z,54.50
2018-03-04T00:20:08.851Z,50.80
2018-03-04T00:21:08.828Z,51.50
2018-03-04T00:22:08.808Z,51.00
2018-03-04T00:23:08.779Z,52.10
2018-03-04T00:24:08.756Z,52.80
2018-03-04T00:25:08.732Z,52.30
2018-03-04T00:26:08.704Z,52.80
2018-03-04T00:27:08.684Z,54.10
2018-03-04T00:28:08.653Z,52.40
2018-03-04T00:29:08.627Z,51.70
2018-03-04T00:30:08.606Z,52.00
2018-03-04T00:31:08.582Z,52.50
2018-03-04T00:32:08.555Z,56.50
2018-03-04T00:33:08.531Z,53.50
2018-03-04T00:34:08.508Z,54.40
2018-03-04T00:35:08.482Z,53.40
2018-03-04T00:36:08.491Z,53.30
2018-03-04T00:37:08.432Z,53.60
2018-03-04T00:38:08.414Z,53.60
2018-03-04T00:39:08.383Z,52.20
2018-03-04T00:40:08.363Z,54.80
2018-03-04T00:41:08.334Z,54.00
2018-03-04T00:42:08.313Z,56.80
2018-03-04T00:43:08.280Z,54.40
2018-03-04T00:44:08.264Z,54.70
2018-03-04T00:45:08.231Z,55.30
2018-03-04T00:46:08.208Z,55.60
2018-03-04T00:47:08.200Z,57.30
2018-03-04T00:48:08.159Z,54.90
2018-03-04T00:49:08.138Z,54.20
2018-03-04T00:50:08.122Z,53.90
2018-03-04T00:51:08.082Z,54.40
2018-03-04T00:52:08.057Z,53.80
2018-03-04T00:53:08.033Z,53.00
2018-03-04T00:54:08.017Z,53.20
2018-03-04T00:55:07.985Z,56.30
2018-03-04T00:56:07.964Z,52.90
2018-03-04T00:57:07.933Z,54.60
2018-03-04T00:58:07.916Z,53.70
2018-03-04T00:59:07.887Z,53.70
2018-03-04T01:00:07.865Z,54.00
2018-03-04T01:01:07.835Z,55.60
2018-03-04T01:02:07.811Z,53.30
2018-03-04T01:03:07.784Z,56.10
2018-03-04T01:04:07.757Z,54.50
2018-03-04T01:05:07.745Z,53.80
2018-03-04T01:06:07.711Z,60.80
2018-03-04T01:07:07.685Z,54.10
2018-03-04T01:08:07.664Z,57.40
2018-03-04T01:09:07.637Z,57.30
2018-03-04T01:10:07.610Z,55.00
2018-03-04T01:11:07.594Z,51.40
2018-03-04T01:12:07.565Z,54.50
2018-03-04T01:13:07.539Z,52.20
2018-03-04T01:14:07.512Z,56.00
2018-03-04T01:15:07.485Z,52.40
2018-03-04T01:16:07.462Z,59.00
2018-03-04T01:17:07.438Z,55.40
2018-03-04T01:18:07.414Z,54.20
2018-03-04T01:19:07.391Z,55.00
2018-03-04T01:20:07.363Z,53.60
2018-03-04T01:21:07.339Z,54.20
2018-03-04T01:22:07.313Z,54.80
2018-03-04T01:23:07.288Z,54.10
2018-03-04T01:24:07.264Z,53.80
2018-03-04T01:25:07.238Z,55.60
2018-03-04T01:26:07.231Z,55.90
2018-03-04T01:27:07.192Z,54.00
2018-03-04T01:28:07.169Z,53.80
2018-03-04T01:29:07.141Z,55.90
2018-03-04T01:30:07.121Z,57.80
2018-03-04T01:31:07.093Z,57.40
2018-03-04T01:32:07.065Z,52.80
2018-03-04T01:33:07.042Z,57.90
2018-03-04T01:34:07.019Z,58.60
2018-03-04T01:35:06.995Z,56.00
2018-03-04T01:36:06.971Z,60.20
2018-03-04T01:37:06.941Z,54.90
2018-03-04T01:38:06.915Z,57.50
2018-03-04T01:39:06.894Z,59.80
2018-03-04T01:40:06.872Z,58.00
2018-03-04T01:41:06.849Z,54.30
2018-03-04T01:42:06.820Z,57.20
2018-03-04T01:43:06.788Z,56.60
2018-03-04T01:44:06.772Z,59.90
2018-03-04T01:45:06.739Z,59.30
2018-03-04T01:46:06.715Z,55.90
2018-03-04T01:47:06.694Z,59.80
2018-03-04T01:48:06.668Z,57.70
2018-03-04T01:49:06.643Z,55.50
2018-03-04T01:50:06.619Z,60.60
2018-03-04T01:51:06.597Z,56.30
2018-03-04T01:52:06.569Z,59.00
2018-03-04T01:53:06.547Z,58.70
2018-03-04T01:54:06.519Z,58.60
2018-03-04T01:55:06.493Z,55.60
2018-03-04T01:56:06.468Z,58.10
2018-03-04T01:57:06.444Z,56.40
2018-03-04T01:58:06.421Z,58.00
2018-03-04T01:59:06.393Z,58.70
2018-03-04T02:00:06.370Z,61.20
2018-03-04T02:01:06.343Z,58.40
2018-03-04T02:02:06.318Z,57.00
2018-03-04T02:03:06.294Z,55.60
2018-03-04T02:04:06.272Z,60.40
2018-03-04T02:05:06.248Z,60.70
2018-03-04T02:06:06.221Z,62.60
2018-03-04T02:07:06.193Z,56.40
2018-03-04T02:08:06.170Z,59.00
2018-03-04T02:09:06.145Z,57.80
2018-03-04T02:10:06.124Z,60.20
2018-03-04T02:11:06.094Z,57.70
2018-03-04T02:12:06.073Z,60.20
2018-03-04T02:13:06.041Z,58.90
2018-03-04T02:14:06.020Z,58.60
2018-03-04T02:15:05.991Z,57.20
2018-03-04T02:16:05.972Z,59.80
2018-03-04T02:17:05.944Z,62.50
2018-03-04T02:18:05.918Z,57.20
2018-03-04T02:19:05.893Z,64.70
2018-03-04T02:20:05.868Z,60.30
2018-03-04T02:21:05.843Z,61.40
2018-03-04T02:22:05.819Z,58.40
2018-03-04T02:23:05.794Z,60.90
2018-03-04T02:24:05.772Z,61.90
2018-03-04T02:25:05.745Z,60.40
2018-03-04T02:26:05.721Z,59.80
2018-03-04T02:27:05.693Z,61.80
2018-03-04T02:28:05.669Z,55.80
2018-03-04T02:29:05.652Z,57.90
2018-03-04T02:30:05.658Z,63.90
2018-03-04T02:31:05.612Z,60.70
2018-03-04T02:32:05.574Z,60.10
2018-03-04T02:33:05.544Z,62.50
2018-03-04T02:34:05.518Z,62.50
2018-03-04T02:35:05.498Z,62.40
2018-03-04T02:36:05.472Z,57.60
2018-03-04T02:37:05.444Z,59.50
2018-03-04T02:38:05.423Z,60.70
2018-03-04T02:39:05.403Z,60.80
2018-03-04T02:40:05.369Z,62.70
2018-03-04T02:41:05.346Z,65.20
2018-03-04T02:42:05.319Z,64.30
2018-03-04T02:43:05.293Z,56.40
2018-03-04T02:44:05.271Z,60.90
2018-03-04T02:45:05.243Z,59.10
2018-03-04T02:46:05.221Z,64.70
2018-03-04T02:47:05.193Z,62.90
2018-03-04T02:48:05.171Z,57.90
2018-03-04T02:49:05.143Z,58.90
2018-03-04T02:50:05.172Z,60.70
2018-03-04T02:51:05.093Z,59.60
2018-03-04T02:52:05.073Z,62.90
2018-03-04T02:53:05.050Z,58.80
2018-03-04T02:54:05.022Z,63.80
2018-03-04T02:55:04.990Z,63.30
2018-03-04T02:56:04.971Z,61.80
2018-03-04T02:57:04.947Z,58.90
2018-03-04T02:58:04.916Z,57.30
2018-03-04T02:59:04.889Z,59.50
2018-03-04T03:00:04.880Z,61.80
2018-03-04T03:01:04.846Z,63.40
2018-03-04T03:02:04.817Z,59.00
2018-03-04T03:03:04.798Z,62.30
2018-03-04T03:04:04.767Z,62.50
2018-03-04T03:05:04.743Z,60.60
2018-03-04T03:06:04.717Z,57.70
2018-03-04T03:07:04.696Z,64.70
2018-03-04T03:08:04.666Z,57.20
2018-03-04T03:09:04.643Z,58.60
2018-03-04T03:10:04.620Z,58.80
2018-03-04T03:11:04.592Z,62.70
2018-03-04T03:12:04.575Z,58.30
2018-03-04T03:13:04.542Z,61.50
2018-03-04T03:14:04.514Z,60.40
2018-03-04T03:15:04.489Z,65.00
2018-03-04T03:16:04.463Z,61.20
2018-03-04T03:17:04.442Z,63.20
2018-03-04T03:18:04.416Z,59.80
2018-03-04T03:19:04.394Z,59.50
2018-03-04T03:20:04.365Z,61.10
2018-03-04T03:21:04.339Z,62.50
2018-03-04T03:22:04.313Z,60.50
2018-03-04T03:23:04.288Z,59.60
2018-03-04T03:24:04.264Z,57.70
2018-03-04T03:25:04.237Z,62.40
2018-03-04T03:26:04.211Z,62.40
2018-03-04T03:27:04.191Z,62.50
2018-03-04T03:28:04.164Z,62.80
2018-03-04T03:29:04.137Z,61.20
2018-03-04T03:30:04.115Z,61.30
2018-03-04T03:31:04.095Z,60.00
2018-03-04T03:32:04.065Z,59.60
2018-03-04T03:33:04.048Z,60.80
2018-03-04T03:34:04.013Z,58.80
2018-03-04T03:35:03.992Z,65.60
2018-03-04T03:36:03.962Z,59.60
2018-03-04T03:37:03.985Z,63.70
2018-03-04T03:38:03.914Z,61.30
2018-03-04T03:39:03.886Z,61.20
2018-03-04T03:40:03.859Z,61.80
2018-03-04T03:41:03.837Z,63.70
2018-03-04T03:42:03.811Z,64.20
2018-03-04T03:43:03.784Z,67.20
2018-03-04T03:44:03.765Z,65.10
2018-03-04T03:45:03.737Z,61.40
2018-03-04T03:46:03.714Z,62.60
2018-03-04T03:47:03.685Z,64.80
2018-03-04T03:48:03.659Z,62.90
2018-03-04T03:49:03.634Z,63.80
2018-03-04T03:50:03.609Z,64.90
2018-03-04T03:51:03.589Z,61.00
2018-03-04T03:52:03.558Z,61.60
2018-03-04T03:53:03.536Z,65.60
2018-03-04T03:54:03.512Z,64.80
2018-03-04T03:55:03.485Z,58.60
2018-03-04T03:56:03.462Z,66.40
2018-03-04T03:57:03.431Z,63.30
2018-03-04T03:58:03.407Z,63.00
2018-03-04T03:59:03.382Z,64.40
2018-03-04T04:00:03.360Z,67.00
2018-03-04T04:01:03.333Z,63.60
2018-03-04T04:02:03.309Z,63.60
2018-03-04T04:03:03.280Z,67.50
2018-03-04T04:04:03.259Z,63.70
2018-03-04T04:05:03.231Z,62.90
2018-03-04T04:06:03.210Z,63.80
2018-03-04T04:07:03.179Z,69.60
2018-03-04T04:08:03.153Z,61.50
2018-03-04T04:09:03.129Z,64.00
2018-03-04T04:10:03.103Z,64.70
2018-03-04T04:11:03.077Z,61.10
2018-03-04T04:12:03.054Z,64.20
2018-03-04T04:13:03.035Z,63.30
2018-03-04T04:14:03.005Z,67.20
2018-03-04T04:15:02.981Z,66.40
2018-03-04T04:16:02.954Z,66.00
2018-03-04T04:17:02.928Z,64.20
2018-03-04T04:18:02.904Z,63.50
2018-03-04T04:19:02.878Z,70.50
2018-03-04T04:20:02.850Z,65.10
2018-03-04T04:21:02.830Z,67.50
2018-03-04T04:22:02.804Z,68.00
2018-03-04T04:23:02.774Z,64.30
2018-03-04T04:24:02.748Z,64.30
2018-03-04T04:25:02.733Z,64.60
2018-03-04T04:26:02.701Z,68.00
2018-03-04T04:27:02.674Z,62.70
2018-03-04T04:28:02.652Z,65.00
2018-03-04T04:29:02.623Z,69.40
2018-03-04T04:30:02.604Z,61.10
2018-03-04T04:31:02.573Z,67.10
2018-03-04T04:32:02.550Z,64.30
2018-03-04T04:33:02.525Z,68.50
2018-03-04T04:34:02.502Z,67.80
2018-03-04T04:35:02.469Z,64.10
2018-03-04T04:36:02.454Z,62.90
2018-03-04T04:37:02.423Z,62.30
2018-03-04T04:38:02.396Z,66.90
2018-03-04T04:39:02.373Z,67.70
2018-03-04T04:40:02.346Z,68.10
2018-03-04T04:41:02.318Z,65.70
2018-03-04T04:42:02.295Z,63.00
2018-03-04T04:43:02.269Z,64.90
2018-03-04T04:44:02.297Z,66.20
2018-03-04T04:45:02.217Z,70.30
2018-03-04T04:46:02.247Z,64.50
2018-03-04T04:47:02.169Z,69.50
2018-03-04T04:48:02.143Z,67.00
2018-03-04T04:49:02.124Z,65.00
2018-03-04T04:50:02.143Z,66.10
2018-03-04T04:51:02.065Z,65.20
2018-03-04T04:52:02.145Z,64.80
2018-03-04T04:53:02.015Z,67.60
2018-03-04T04:54:01.993Z,67.80
2018-03-04T04:55:01.962Z,64.40
2018-03-04T04:56:01.986Z,68.00
2018-03-04T04:57:01.913Z,64.80
2018-03-04T04:58:01.986Z,65.10
2018-03-04T04:59:01.858Z,66.50
2018-03-04T05:00:01.912Z,64.10
2018-03-04T05:01:01.811Z,65.20
2018-03-04T05:02:01.856Z,63.20
2018-03-04T05:03:01.765Z,72.50
2018-03-04T05:04:01.738Z,65.60
2018-03-04T05:05:01.708Z,67.90
2018-03-04T05:06:01.784Z,61.40
2018-03-04T05:07:01.657Z,65.80
2018-03-04T05:08:01.634Z,66.60
2018-03-04T05:09:01.614Z,66.00
2018-03-04T05:10:01.599Z,65.10
2018-03-04T05:11:01.557Z,61.90
2018-03-04T05:12:01.531Z,67.50
2018-03-04T05:13:01.504Z,68.70
2018-03-04T05:14:01.484Z,69.50
2018-03-04T05:15:01.458Z,69.00
2018-03-04T05:16:01.427Z,65.70
2018-03-04T05:17:01.404Z,64.80
2018-03-04T05:18:01.378Z,65.80
2018-03-04T05:19:01.360Z,66.70
2018-03-04T05:20:01.323Z,69.20
2018-03-04T05:21:01.304Z,67.70
2018-03-04T05:22:01.279Z,66.80
2018-03-04T05:23:01.253Z,72.20
2018-03-04T05:24:01.225Z,68.00
2018-03-04T05:25:01.204Z,68.80
2018-03-04T05:26:01.175Z,66.00
2018-03-04T05:27:01.155Z,64.20
2018-03-04T05:28:01.124Z,72.00
2018-03-04T05:29:01.097Z,71.10
2018-03-04T05:30:01.079Z,65.50
2018-03-04T05:31:01.054Z,71.70
2018-03-04T05:32:01.025Z,69.90
2018-03-04T05:33:01.001Z,66.70
2018-03-04T05:34:00.970Z,69.20
2018-03-04T05:35:00.949Z,69.60
2018-03-04T05:36:00.922Z,67.00
2018-03-04T05:37:00.899Z,69.70
2018-03-04T05:38:00.874Z,71.00
2018-03-04T05:39:00.842Z,67.20
2018-03-04T05:40:00.820Z,68.70
2018-03-04T05:41:00.792Z,69.40
2018-03-04T05:42:00.772Z,65.80
2018-03-04T05:43:00.740Z,69.00
2018-03-04T05:44:00.714Z,68.30
2018-03-04T05:45:00.690Z,66.40
2018-03-04T05:46:00.664Z,67.50
2018-03-04T05:47:00.642Z,66.20
2018-03-04T05:48:00.612Z,68.20
2018-03-04T05:49:00.588Z,63.90
2018-03-04T05:50:00.563Z,67.80
2018-03-04T05:51:00.541Z,65.00
2018-03-04T05:52:00.513Z,69.80
2018-03-04T05:53:00.498Z,64.30
2018-03-04T05:54:00.462Z,65.50
2018-03-04T05:55:00.434Z,67.40
2018-03-04T05:56:00.416Z,64.60
2018-03-04T05:57:00.393Z,63.40
2018-03-04T05:58:00.362Z,65.60
2018-03-04T05:59:00.395Z,67.10
2018-03-04T06:00:00.307Z,68.80
2018-03-04T06:01:00.284Z,68.20
2018-03-04T06:02:00.255Z,69.20
2018-03-04T06:03:00.231Z,66.50
2018-03-04T06:04:00.205Z,68.20
2018-03-04T06:05:00.333Z,71.70
2018-03-04T06:06:00.159Z,65.40
2018-03-04T06:07:00.233Z,69.40
2018-03-04T06:08:00.104Z,66.60
2018-03-04T06:09:00.081Z,66.50
2018-03-04T06:10:00.053Z,65.80
2018-03-04T06:11:00.035Z,67.40
2018-03-04T06:12:00.004Z,63.40
2018-03-04T06:12:59.978Z,70.20
2018-03-04T06:13:59.955Z,67.50
2018-03-04T06:15:00.055Z,65.40
2018-03-04T06:15:59.949Z,65.00
2018-03-04T06:16:59.882Z,68.60
2018-03-04T06:17:59.851Z,63.10
2018-03-04T06:18:59.825Z,65.50
2018-03-04T06:19:59.798Z,66.30
2018-03-04T06:20:59.775Z,70.10
2018-03-04T06:21:59.748Z,67.60
2018-03-04T06:22:59.736Z,68.70
2018-03-04T06:23:59.705Z,64.20
2018-03-04T06:24:59.674Z,66.30
2018-03-04T06:25:59.650Z,67.70
2018-03-04T06:26:59.622Z,70.10
2018-03-04T06:27:59.595Z,69.80
2018-03-04T06:28:59.574Z,66.90
2018-03-04T06:29:59.543Z,67.10
2018-03-04T06:30:59.517Z,68.00
2018-03-04T06:31:59.493Z,69.60
2018-03-04T06:32:59.473Z,69.00
2018-03-04T06:33:59.449Z,68.60
2018-03-04T06:34:59.423Z,66.40
2018-03-04T06:35:59.407Z,71.10
2018-03-04T06:36:59.366Z,68.70
2018-03-04T06:37:59.344Z,64.60
2018-03-04T06:38:59.315Z,67.70
2018-03-04T06:39:59.298Z,65.80
2018-03-04T06:40:59.270Z,71.10
2018-03-04T06:41:59.249Z,67.80
2018-03-04T06:42:59.214Z,71.10
2018-03-04T06:43:59.192Z,69.80
2018-03-04T06:44:59.168Z,67.10
2018-03-04T06:45:59.144Z,69.00
2018-03-04T06:46:59.113Z,63.20
2018-03-04T06:47:59.090Z,63.50
2018-03-04T06:48:59.105Z,63.80
2018-03-04T06:49:59.106Z,67.50
2018-03-04T06:50:59.013Z,66.60
2018-03-04T06:51:58.990Z,67.40
2018-03-04T06:52:58.964Z,63.70
2018-03-04T06:53:58.938Z,64.60
2018-03-04T06:54:58.914Z,63.30
2018-03-04T06:55:58.893Z,65.70
2018-03-04T06:56:58.863Z,64.20
2018-03-04T06:57:58.903Z,65.40
2018-03-04T06:58:58.825Z,65.10
2018-03-04T06:59:58.791Z,64.40
2018-03-04T07:00:58.764Z,63.80
2018-03-04T07:01:58.739Z,65.30
2018-03-04T07:02:58.713Z,64.50
2018-03-04T07:03:58.691Z,65.20
2018-03-04T07:04:58.668Z,63.50
2018-03-04T07:05:58.640Z,62.60
2018-03-04T07:06:58.613Z,64.20
2018-03-04T07:07:58.599Z,64.20
2018-03-04T07:08:58.564Z,63.90
2018-03-04T07:09:58.650Z,64.70
2018-03-04T07:10:58.519Z,65.20
2018-03-04T07:11:58.500Z,63.00
2018-03-04T07:12:58.472Z,61.60
2018-03-04T07:13:58.548Z,63.30
2018-03-04T07:14:58.425Z,64.50
2018-03-04T07:15:58.395Z,60.40
2018-03-04T07:16:58.399Z,59.80
2018-03-04T07:17:58.441Z,58.40
2018-03-04T07:18:58.318Z,59.90
2018-03-04T07:19:58.299Z,63.70
2018-03-04T07:20:58.271Z,65.40
2018-03-04T07:21:58.248Z,60.10
2018-03-04T07:22:58.226Z,61.80
2018-03-04T07:23:58.199Z,63.20
2018-03-04T07:24:58.174Z,63.60
2018-03-04T07:25:58.152Z,60.30
2018-03-04T07:26:58.124Z,61.90
2018-03-04T07:27:58.168Z,63.80
2018-03-04T07:28:58.074Z,62.30
2018-03-04T07:29:58.048Z,58.80
2018-03-04T07:30:58.026Z,61.60
2018-03-04T07:31:58.002Z,60.70
2018-03-04T07:32:57.978Z,60.30
2018-03-04T07:33:57.955Z,63.20
2018-03-04T07:34:57.931Z,61.90
2018-03-04T07:35:57.942Z,58.80
2018-03-04T07:36:57.885Z,58.50
2018-03-04T07:37:57.858Z,58.80
2018-03-04T07:38:57.888Z,61.10
2018-03-04T07:39:57.814Z,57.90
2018-03-04T07:40:57.785Z,60.60
2018-03-04T07:41:57.766Z,56.60
2018-03-04T07:42:57.736Z,60.60
2018-03-04T07:43:57.715Z,57.10
2018-03-04T07:44:57.693Z,60.20
2018-03-04T07:45:57.674Z,54.40
2018-03-04T07:46:57.645Z,54.40
2018-03-04T07:47:57.621Z,57.10
2018-03-04T07:48:57.598Z,57.00
2018-03-04T07:49:57.574Z,58.00
2018-03-04T07:50:57.600Z,60.00
2018-03-04T07:51:57.530Z,59.00
2018-03-04T07:52:57.503Z,57.80
2018-03-04T07:53:57.488Z,57.00
2018-03-04T07:54:57.455Z,56.00
2018-03-04T07:55:57.436Z,51.00
2018-03-04T07:56:57.413Z,57.10
2018-03-04T07:57:57.395Z,55.50
2018-03-04T07:58:57.366Z,55.20
2018-03-04T07:59:57.340Z,56.10
2018-03-04T08:00:57.317Z,57.20
2018-03-04T08:01:57.299Z,54.70
2018-03-04T08:02:57.275Z,53.50
2018-03-04T08:03:57.251Z,53.20
2018-03-04T08:04:57.225Z,57.20
2018-03-04T08:05:57.209Z,55.20
2018-03-04T08:06:57.176Z,52.00
2018-03-04T08:07:57.153Z,52.50
2018-03-04T08:08:57.132Z,52.30
2018-03-04T08:09:57.109Z,53.80
2018-03-04T08:10:57.086Z,48.50
2018-03-04T08:11:57.064Z,51.10
2018-03-04T08:12:57.041Z,52.20
2018-03-04T08:13:57.018Z,55.50
2018-03-04T08:14:56.994Z,55.40
2018-03-04T08:15:56.969Z,52.60
2018-03-04T08:16:56.955Z,52.20
2018-03-04T08:17:56.927Z,51.30
2018-03-04T08:18:56.905Z,48.40
2018-03-04T08:19:56.884Z,54.40
2018-03-04T08:20:56.860Z,53.40
2018-03-04T08:21:56.836Z,52.40
2018-03-04T08:22:56.813Z,52.80
2018-03-04T08:23:56.795Z,56.30
2018-03-04T08:24:56.768Z,54.20
2018-03-04T08:25:56.749Z,52.50
2018-03-04T08:26:56.723Z,52.50
2018-03-04T08:27:56.700Z,53.20
2018-03-04T08:28:56.731Z,51.40
2018-03-04T08:29:56.662Z,52.60
2018-03-04T08:30:56.665Z,53.00
2018-03-04T08:31:56.614Z,51.20
2018-03-04T08:32:56.653Z,49.70
2018-03-04T08:33:56.585Z,49.20
2018-03-04T08:34:56.598Z,52.00
2018-03-04T08:35:56.531Z,48.70
2018-03-04T08:36:56.533Z,50.70
2018-03-04T08:37:56.482Z,54.60
2018-03-04T08:38:56.485Z,51.20
2018-03-04T08:39:56.440Z,51.50
2018-03-04T08:40:56.468Z,49.30
2018-03-04T08:41:56.402Z,49.20
2018-03-04T08:42:56.377Z,51.80
2018-03-04T08:43:56.360Z,52.50
2018-03-04T08:44:56.385Z,48.80
2018-03-04T08:45:56.312Z,51.00
2018-03-04T08:46:56.300Z,51.40
2018-03-04T08:47:56.271Z,51.40
2018-03-04T08:48:56.254Z,50.50
2018-03-04T08:49:56.236Z,52.20
2018-03-04T08:50:56.225Z,50.60
2018-03-04T08:51:56.190Z,49.20
2018-03-04T08:52:56.251Z,49.70
2018-03-04T08:53:56.154Z,48.60
2018-03-04T08:54:56.172Z,50.20
2018-03-04T08:55:56.114Z,49.20
2018-03-04T08:56:56.206Z,49.30
2018-03-04T08:57:56.084Z,51.10
2018-03-04T08:58:56.061Z,50.20
2018-03-04T08:59:56.038Z,48.20
2018-03-04T09:00:56.099Z,51.10
2018-03-04T09:01:56.005Z,49.00
2018-03-04T09:02:56.045Z,50.10
2018-03-04T09:03:55.972Z,48.80
2018-03-04T09:04:55.953Z,49.30
2018-03-04T09:05:55.935Z,47.90
2018-03-04T09:06:55.926Z,47.80
2018-03-04T09:07:55.901Z,49.60
2018-03-04T09:08:55.922Z,47.90
2018-03-04T09:09:55.870Z,47.90
2018-03-04T09:10:55.956Z,48.40
2018-03-04T09:11:55.839Z,48.80
2018-03-04T09:12:55.825Z,50.60
2018-03-04T09:13:55.818Z,47.20
2018-03-04T09:14:55.820Z,50.10
2018-03-04T09:15:55.787Z,48.40
2018-03-04T09:16:55.767Z,46.10
2018-03-04T09:17:55.754Z,48.70
2018-03-04T09:18:55.744Z,48.70
2018-03-04T09:19:55.727Z,48.30
2018-03-04T09:20:55.712Z,48.00
2018-03-04T09:21:55.703Z,49.40
2018-03-04T09:22:55.688Z,46.70
2018-03-04T09:23:55.679Z,49.30
2018-03-04T09:24:55.659Z,47.30
2018-03-04T09:25:55.649Z,52.90
2018-03-04T09:26:55.635Z,48.50
2018-03-04T09:27:55.619Z,47.10
2018-03-04T09:28:55.609Z,45.60
2018-03-04T09:29:55.594Z,48.40
2018-03-04T09:30:55.589Z,54.10
2018-03-04T09:31:55.579Z,49.70
2018-03-04T09:32:55.559Z,50.10
2018-03-04T09:33:55.547Z,49.00
2018-03-04T09:34:55.536Z,46.40
2018-03-04T09:35:55.522Z,49.90
2018-03-04T09:36:55.509Z,48.30
2018-03-04T09:37:55.499Z,48.00
2018-03-04T09:38:55.484Z,48.60
2018-03-04T09:39:55.474Z,50.90
2018-03-04T09:40:55.465Z,50.70
2018-03-04T09:41:55.452Z,49.50
2018-03-04T09:42:55.447Z,50.10
2018-03-04T09:43:55.429Z,50.00
2018-03-04T09:44:55.418Z,50.90
2018-03-04T09:45:55.404Z,45.50
2018-03-04T09:46:55.397Z,47.00
2018-03-04T09:47:55.385Z,48.70
2018-03-04T09:48:55.373Z,45.70
2018-03-04T09:49:55.365Z,47.70
2018-03-04T09:50:55.362Z,51.00
2018-03-04T09:51:55.342Z,49.70
2018-03-04T09:52:55.334Z,48.60
2018-03-04T09:53:55.326Z,49.80
2018-03-04T09:54:55.334Z,49.30
2018-03-04T09:55:55.304Z,48.10
2018-03-04T09:56:55.296Z,48.00
2018-03-04T09:57:55.294Z,49.90
2018-03-04T09:58:55.279Z,49.30
2018-03-04T09:59:55.276Z,49.40
2018-03-04T10:00:55.265Z,46.30
2018-03-04T10:01:55.252Z,46.70
2018-03-04T10:02:55.242Z,47.80
2018-03-04T10:03:55.276Z,50.00
2018-03-04T10:04:55.221Z,48.50
2018-03-04T10:05:55.221Z,51.50
2018-03-04T10:06:55.202Z,47.70
2018-03-04T10:07:55.197Z,47.90
2018-03-04T10:08:55.184Z,50.90
2018-03-04T10:09:55.174Z,51.40
2018-03-04T10:10:55.162Z,49.20
2018-03-04T10:11:55.157Z,49.60
2018-03-04T10:12:55.160Z,49.20
2018-03-04T10:13:55.132Z,45.90
2018-03-04T10:14:55.148Z,51.60
2018-03-04T10:15:55.113Z,52.60
2018-03-04T10:16:55.100Z,50.70
2018-03-04T10:17:55.096Z,49.90
2018-03-04T10:18:55.076Z,51.10
2018-03-04T10:19:55.066Z,48.00
2018-03-04T10:20:55.055Z,48.30
2018-03-04T10:21:55.049Z,50.40
2018-03-04T10:22:55.043Z,50.30
2018-03-04T10:23:55.025Z,51.50
2018-03-04T10:24:55.021Z,49.90
2018-03-04T10:25:55.005Z,47.00
2018-03-04T10:26:54.996Z,46.90
2018-03-04T10:27:54.982Z,49.40
2018-03-04T10:28:54.975Z,48.90
2018-03-04T10:29:54.963Z,50.40
2018-03-04T10:30:54.957Z,54.50
2018-03-04T10:31:54.952Z,51.30
2018-03-04T10:32:54.939Z,49.80
2018-03-04T10:33:54.927Z,48.50
2018-03-04T10:34:54.920Z,47.00
2018-03-04T10:35:54.911Z,48.80
2018-03-04T10:36:54.903Z,47.70
2018-03-04T10:37:54.892Z,47.60
2018-03-04T10:38:54.883Z,49.60
2018-03-04T10:39:54.885Z,50.10
2018-03-04T10:40:54.865Z,49.00
2018-03-04T10:41:54.860Z,49.80
2018-03-04T10:42:54.855Z,49.30
2018-03-04T10:43:54.847Z,48.40
2018-03-04T10:44:54.835Z,46.70
2018-03-04T10:45:54.822Z,48.40
2018-03-04T10:46:54.819Z,50.90
2018-03-04T10:47:54.847Z,46.70
2018-03-04T10:48:54.800Z,50.00
2018-03-04T10:49:54.838Z,48.10
2018-03-04T10:50:54.786Z,48.90
2018-03-04T10:51:54.773Z,48.60
2018-03-04T10:52:54.767Z,49.20
2018-03-04T10:53:54.764Z,49.20
2018-03-04T10:54:54.753Z,50.50
2018-03-04T10:55:54.742Z,50.60
2018-03-04T10:56:54.739Z,48.90
2018-03-04T10:57:54.735Z,49.70
2018-03-04T10:58:54.722Z,48.90
2018-03-04T10:59:54.709Z,47.90
2018-03-04T11:00:54.709Z,46.90
2018-03-04T11:01:54.693Z,49.50
2018-03-04T11:02:54.688Z,50.30
2018-03-04T11:03:54.736Z,48.60
2018-03-04T11:04:54.672Z,49.70
2018-03-04T11:05:54.664Z,47.20
2018-03-04T11:06:54.654Z,50.00
2018-03-04T11:07:54.652Z,48.10
2018-03-04T11:08:54.640Z,50.30
2018-03-04T11:09:54.639Z,45.50
2018-03-04T11:10:54.641Z,48.60
2018-03-04T11:11:54.622Z,48.50
2018-03-04T11:12:54.667Z,49.50
2018-03-04T11:13:54.616Z,47.70
2018-03-04T11:14:54.706Z,47.90
2018-03-04T11:15:54.607Z,48.20
2018-03-04T11:16:54.647Z,48.90
2018-03-04T11:17:54.595Z,51.80
2018-03-04T11:18:54.593Z,47.30
2018-03-04T11:19:54.583Z,49.90
2018-03-04T11:20:54.584Z,48.40
2018-03-04T11:21:54.587Z,48.50
2018-03-04T11:22:54.574Z,46.40
2018-03-04T11:23:54.575Z,48.30
2018-03-04T11:24:54.570Z,47.80
2018-03-04T11:25:54.618Z,48.00
2018-03-04T11:26:54.566Z,47.40
2018-03-04T11:27:54.565Z,49.20
2018-03-04T11:28:54.570Z,46.60
2018-03-04T11:29:54.562Z,46.50
2018-03-04T11:30:54.561Z,46.70
2018-03-04T11:31:54.558Z,46.90
2018-03-04T11:32:54.557Z,48.70
2018-03-04T11:33:54.560Z,48.40
2018-03-04T11:34:54.570Z,46.30
2018-03-04T11:35:54.552Z,47.70
2018-03-04T11:36:54.613Z,47.80
2018-03-04T11:37:54.554Z,47.10
2018-03-04T11:38:54.551Z,48.00
2018-03-04T11:39:54.558Z,46.70
2018-03-04T11:40:54.552Z,49.20
2018-03-04T11:41:54.551Z,48.90
2018-03-04T11:42:54.573Z,48.90
2018-03-04T11:43:54.577Z,47.00
2018-03-04T11:44:54.552Z,47.00
2018-03-04T11:45:54.605Z,46.70
2018-03-04T11:46:54.575Z,48.10
2018-03-04T11:47:54.555Z,47.00
2018-03-04T11:48:54.551Z,46.20
2018-03-04T11:49:54.554Z,47.70
2018-03-04T11:50:54.552Z,48.10
2018-03-04T11:51:54.551Z,47.80
2018-03-04T11:52:54.552Z,45.50
2018-03-04T11:53:54.554Z,47.60
2018-03-04T11:54:54.552Z,46.70
2018-03-04T11:55:54.566Z,46.40
2018-03-04T11:56:54.557Z,45.20
2018-03-04T11:57:54.558Z,48.10
2018-03-04T11:58:54.555Z,49.00
2018-03-04T11:59:54.558Z,46.90
2018-03-04T12:00:54.559Z,46.30
2018-03-04T12:01:54.561Z,46.00
2018-03-04T12:02:54.562Z,47.40
2018-03-04T12:03:54.576Z,45.10
2018-03-04T12:04:54.647Z,47.90
2018-03-04T12:05:54.564Z,47.50
2018-03-04T12:06:54.680Z,46.30
2018-03-04T12:07:54.566Z,47.60
2018-03-04T12:08:54.572Z,45.50
2018-03-04T12:09:54.569Z,47.50
2018-03-04T12:10:54.669Z,45.90
2018-03-04T12:11:54.571Z,47.10
2018-03-04T12:12:54.674Z,45.30
2018-03-04T12:13:54.577Z,46.30
2018-03-04T12:14:54.623Z,44.80
2018-03-04T12:15:54.579Z,45.30
2018-03-04T12:16:54.578Z,46.90
2018-03-04T12:17:54.577Z,46.60
2018-03-04T12:18:54.682Z,46.20
2018-03-04T12:19:54.588Z,46.80
2018-03-04T12:20:54.586Z,47.00
2018-03-04T12:21:54.585Z,48.90
2018-03-04T12:22:54.589Z,45.30
2018-03-04T12:23:54.593Z,46.30
2018-03-04T12:24:54.591Z,46.60
2018-03-04T12:25:54.590Z,44.60
2018-03-04T12:26:54.639Z,47.90
2018-03-04T12:27:54.593Z,48.30
2018-03-04T12:28:54.591Z,47.30
2018-03-04T12:29:54.620Z,47.60
2018-03-04T12:30:54.599Z,47.00
2018-03-04T12:31:54.606Z,47.80
2018-03-04T12:32:54.601Z,48.00
2018-03-04T12:33:54.600Z,46.60
2018-03-04T12:34:54.601Z,46.20
2018-03-04T12:35:54.628Z,45.20
2018-03-04T12:36:54.601Z,44.70
2018-03-04T12:37:54.703Z,46.80
2018-03-04T12:38:54.606Z,45.90
2018-03-04T12:39:54.607Z,46.20
2018-03-04T12:40:54.610Z,47.40
2018-03-04T12:41:54.612Z,47.00
2018-03-04T12:42:54.611Z,46.60
2018-03-04T12:43:54.616Z,46.70
2018-03-04T12:44:54.614Z,45.00
2018-03-04T12:45:54.616Z,45.80
2018-03-04T12:46:54.618Z,44.70
2018-03-04T12:47:54.615Z,45.80
2018-03-04T12:48:54.621Z,45.70
2018-03-04T12:49:54.620Z,48.30
2018-03-04T12:50:54.618Z,46.40
2018-03-04T12:51:54.619Z,45.00